sensor_id;sensor_type;location;lat;lon;timestamp;P1;durP1;ratioP1;P2;durP2;ratioP2
11431;SDS011;5772;50.940;6.782;2023-07-20T00:01:18;94.43;;;90.40;;
11431;SDS011;5772;50.940;6.782;2023-07-20T00:03:43;97.27;;;93.17;;
11431;SDS011;5772;50.940;6.782;2023-07-20T00:06:09;94.40;;;90.30;;
11431;SDS011;5772;50.940;6.782;2023-07-20T00:08:34;98.63;;;94.23;;
11431;SDS011;5772;50.940;6.782;2023-07-20T00:10:59;92.63;;;88.43;;
11431;SDS011;5772;50.940;6.782;2023-07-20T00:13:25;93.00;;;88.67;;
11431;SDS011;5772;50.940;6.782;2023-07-20T00:15:50;90.80;;;87.00;;
11431;SDS011;5772;50.940;6.782;2023-07-20T00:18:17;112.90;;;108.13;;
11431;SDS011;5772;50.940;6.782;2023-07-20T00:20:43;98.83;;;94.60;;
11431;SDS011;5772;50.940;6.782;2023-07-20T00:23:08;108.67;;;103.77;;
11431;SDS011;5772;50.940;6.782;2023-07-20T00:25:34;109.20;;;104.43;;
11431;SDS011;5772;50.940;6.782;2023-07-20T00:27:59;117.70;;;112.50;;
11431;SDS011;5772;50.940;6.782;2023-07-20T00:30:25;122.20;;;116.83;;
11431;SDS011;5772;50.940;6.782;2023-07-20T00:32:50;113.73;;;108.83;;
11431;SDS011;5772;50.940;6.782;2023-07-20T00:35:17;108.53;;;103.97;;
11431;SDS011;5772;50.940;6.782;2023-07-20T00:37:42;102.57;;;98.13;;
11431;SDS011;5772;50.940;6.782;2023-07-20T00:40:08;95.80;;;91.80;;
11431;SDS011;5772;50.940;6.782;2023-07-20T00:42:33;95.33;;;91.13;;
11431;SDS011;5772;50.940;6.782;2023-07-20T00:44:59;99.90;;;95.50;;
11431;SDS011;5772;50.940;6.782;2023-07-20T00:47:24;95.40;;;91.37;;
11431;SDS011;5772;50.940;6.782;2023-07-20T00:49:50;89.80;;;86.00;;
11431;SDS011;5772;50.940;6.782;2023-07-20T00:52:17;84.90;;;81.10;;
11431;SDS011;5772;50.940;6.782;2023-07-20T00:54:43;83.50;;;80.10;;
11431;SDS011;5772;50.940;6.782;2023-07-20T00:57:09;74.10;;;70.77;;
11431;SDS011;5772;50.940;6.782;2023-07-20T00:59:34;71.17;;;67.97;;
11431;SDS011;5772;50.940;6.782;2023-07-20T01:02:00;65.83;;;62.90;;
11431;SDS011;5772;50.940;6.782;2023-07-20T01:04:25;66.90;;;64.03;;
11431;SDS011;5772;50.940;6.782;2023-07-20T01:06:53;66.87;;;63.93;;
11431;SDS011;5772;50.940;6.782;2023-07-20T01:09:24;63.70;;;60.97;;
11431;SDS011;5772;50.940;6.782;2023-07-20T01:11:53;64.60;;;61.83;;
11431;SDS011;5772;50.940;6.782;2023-07-20T01:14:21;67.20;;;64.40;;
11431;SDS011;5772;50.940;6.782;2023-07-20T01:16:48;67.57;;;64.60;;
11431;SDS011;5772;50.940;6.782;2023-07-20T01:19:13;72.37;;;69.27;;
11431;SDS011;5772;50.940;6.782;2023-07-20T01:21:39;73.87;;;70.50;;
11431;SDS011;5772;50.940;6.782;2023-07-20T01:24:35;67.23;;;64.37;;
11431;SDS011;5772;50.940;6.782;2023-07-20T01:27:16;74.30;;;71.10;;
11431;SDS011;5772;50.940;6.782;2023-07-20T01:30:04;85.07;;;81.67;;
11431;SDS011;5772;50.940;6.782;2023-07-20T01:32:37;81.90;;;78.60;;
11431;SDS011;5772;50.940;6.782;2023-07-20T01:35:04;84.97;;;81.47;;
11431;SDS011;5772;50.940;6.782;2023-07-20T01:37:30;81.60;;;78.00;;
11431;SDS011;5772;50.940;6.782;2023-07-20T01:39:57;85.57;;;81.97;;
11431;SDS011;5772;50.940;6.782;2023-07-20T01:42:22;85.70;;;82.13;;
11431;SDS011;5772;50.940;6.782;2023-07-20T01:44:50;79.63;;;76.30;;
11431;SDS011;5772;50.940;6.782;2023-07-20T01:47:15;72.70;;;69.37;;
11431;SDS011;5772;50.940;6.782;2023-07-20T01:49:42;66.27;;;63.30;;
11431;SDS011;5772;50.940;6.782;2023-07-20T01:52:07;72.83;;;69.53;;
11431;SDS011;5772;50.940;6.782;2023-07-20T01:54:33;77.27;;;73.87;;
11431;SDS011;5772;50.940;6.782;2023-07-20T01:56:58;77.00;;;73.43;;
11431;SDS011;5772;50.940;6.782;2023-07-20T01:59:24;79.70;;;76.30;;
11431;SDS011;5772;50.940;6.782;2023-07-20T02:01:49;80.07;;;76.40;;
11431;SDS011;5772;50.940;6.782;2023-07-20T02:04:14;66.30;;;63.30;;
11431;SDS011;5772;50.940;6.782;2023-07-20T02:06:41;67.27;;;64.43;;
11431;SDS011;5772;50.940;6.782;2023-07-20T02:09:06;60.87;;;58.20;;
11431;SDS011;5772;50.940;6.782;2023-07-20T02:11:32;65.60;;;62.83;;
11431;SDS011;5772;50.940;6.782;2023-07-20T02:13:57;75.00;;;71.90;;
11431;SDS011;5772;50.940;6.782;2023-07-20T02:16:23;75.07;;;71.77;;
11431;SDS011;5772;50.940;6.782;2023-07-20T02:18:48;70.20;;;67.13;;
11431;SDS011;5772;50.940;6.782;2023-07-20T02:21:13;81.73;;;78.30;;
11431;SDS011;5772;50.940;6.782;2023-07-20T02:23:41;69.07;;;66.07;;
11431;SDS011;5772;50.940;6.782;2023-07-20T02:26:06;69.40;;;66.30;;
11431;SDS011;5772;50.940;6.782;2023-07-20T02:28:32;70.77;;;67.73;;
11431;SDS011;5772;50.940;6.782;2023-07-20T02:30:57;71.30;;;68.20;;
11431;SDS011;5772;50.940;6.782;2023-07-20T02:33:22;67.27;;;64.37;;
11431;SDS011;5772;50.940;6.782;2023-07-20T02:35:48;67.97;;;64.83;;
11431;SDS011;5772;50.940;6.782;2023-07-20T02:38:13;63.40;;;60.20;;
11431;SDS011;5772;50.940;6.782;2023-07-20T02:40:40;61.20;;;58.10;;
11431;SDS011;5772;50.940;6.782;2023-07-20T02:43:05;61.13;;;58.53;;
11431;SDS011;5772;50.940;6.782;2023-07-20T02:45:30;74.80;;;71.63;;
11431;SDS011;5772;50.940;6.782;2023-07-20T02:47:56;67.40;;;64.40;;
11431;SDS011;5772;50.940;6.782;2023-07-20T02:50:21;86.40;;;82.53;;
11431;SDS011;5772;50.940;6.782;2023-07-20T02:52:47;86.10;;;82.27;;
11431;SDS011;5772;50.940;6.782;2023-07-20T02:55:12;146.37;;;140.40;;
11431;SDS011;5772;50.940;6.782;2023-07-20T02:57:39;64.90;;;61.90;;
11431;SDS011;5772;50.940;6.782;2023-07-20T03:00:05;65.87;;;63.00;;
11431;SDS011;5772;50.940;6.782;2023-07-20T03:02:31;80.23;;;76.67;;
11431;SDS011;5772;50.940;6.782;2023-07-20T03:04:56;79.83;;;76.43;;
11431;SDS011;5772;50.940;6.782;2023-07-20T03:07:22;83.10;;;79.60;;
11431;SDS011;5772;50.940;6.782;2023-07-20T03:09:47;84.17;;;80.37;;
11431;SDS011;5772;50.940;6.782;2023-07-20T03:12:13;79.73;;;76.37;;
11431;SDS011;5772;50.940;6.782;2023-07-20T03:14:39;83.77;;;80.13;;
11431;SDS011;5772;50.940;6.782;2023-07-20T03:17:05;91.33;;;87.37;;
11431;SDS011;5772;50.940;6.782;2023-07-20T03:19:30;82.90;;;79.30;;
11431;SDS011;5772;50.940;6.782;2023-07-20T03:21:56;84.87;;;81.20;;
11431;SDS011;5772;50.940;6.782;2023-07-20T03:24:21;85.53;;;81.97;;
11431;SDS011;5772;50.940;6.782;2023-07-20T03:26:46;84.40;;;80.80;;
11431;SDS011;5772;50.940;6.782;2023-07-20T03:29:12;85.57;;;82.07;;
11431;SDS011;5772;50.940;6.782;2023-07-20T03:31:39;82.33;;;78.77;;
11431;SDS011;5772;50.940;6.782;2023-07-20T03:34:04;81.63;;;78.23;;
11431;SDS011;5772;50.940;6.782;2023-07-20T03:36:29;81.33;;;78.03;;
11431;SDS011;5772;50.940;6.782;2023-07-20T03:38:55;79.17;;;75.80;;
11431;SDS011;5772;50.940;6.782;2023-07-20T03:41:20;81.03;;;77.63;;
11431;SDS011;5772;50.940;6.782;2023-07-20T03:43:45;81.23;;;77.93;;
11431;SDS011;5772;50.940;6.782;2023-07-20T03:46:11;75.60;;;72.47;;
11431;SDS011;5772;50.940;6.782;2023-07-20T03:48:37;80.50;;;77.20;;
11431;SDS011;5772;50.940;6.782;2023-07-20T03:51:03;83.53;;;79.93;;
11431;SDS011;5772;50.940;6.782;2023-07-20T03:53:28;76.57;;;73.37;;
11431;SDS011;5772;50.940;6.782;2023-07-20T03:55:54;81.13;;;77.67;;
11431;SDS011;5772;50.940;6.782;2023-07-20T03:58:19;82.53;;;79.03;;
11431;SDS011;5772;50.940;6.782;2023-07-20T04:00:45;78.23;;;74.93;;
11431;SDS011;5772;50.940;6.782;2023-07-20T04:03:11;81.00;;;76.97;;
11431;SDS011;5772;50.940;6.782;2023-07-20T04:05:38;79.13;;;75.70;;
11431;SDS011;5772;50.940;6.782;2023-07-20T04:08:03;84.43;;;80.83;;
11431;SDS011;5772;50.940;6.782;2023-07-20T04:10:29;77.83;;;74.43;;
11431;SDS011;5772;50.940;6.782;2023-07-20T04:12:54;79.43;;;76.13;;
11431;SDS011;5772;50.940;6.782;2023-07-20T04:15:20;76.13;;;72.57;;
11431;SDS011;5772;50.940;6.782;2023-07-20T04:17:45;82.70;;;79.20;;
11431;SDS011;5772;50.940;6.782;2023-07-20T04:20:10;77.87;;;74.63;;
11431;SDS011;5772;50.940;6.782;2023-07-20T04:22:37;75.00;;;71.80;;
11431;SDS011;5772;50.940;6.782;2023-07-20T04:25:03;80.67;;;77.27;;
11431;SDS011;5772;50.940;6.782;2023-07-20T04:27:28;76.27;;;72.90;;
11431;SDS011;5772;50.940;6.782;2023-07-20T04:29:54;80.23;;;76.67;;
11431;SDS011;5772;50.940;6.782;2023-07-20T04:32:19;81.20;;;77.80;;
11431;SDS011;5772;50.940;6.782;2023-07-20T04:34:44;79.07;;;75.20;;
11431;SDS011;5772;50.940;6.782;2023-07-20T04:37:10;80.53;;;77.33;;
11431;SDS011;5772;50.940;6.782;2023-07-20T04:39:37;81.77;;;78.40;;
11431;SDS011;5772;50.940;6.782;2023-07-20T04:42:02;85.63;;;82.07;;
11431;SDS011;5772;50.940;6.782;2023-07-20T04:44:28;86.60;;;82.77;;
11431;SDS011;5772;50.940;6.782;2023-07-20T04:46:53;86.87;;;83.17;;
11431;SDS011;5772;50.940;6.782;2023-07-20T04:49:18;89.50;;;85.70;;
11431;SDS011;5772;50.940;6.782;2023-07-20T04:51:44;87.03;;;83.37;;
11431;SDS011;5772;50.940;6.782;2023-07-20T04:54:10;91.13;;;87.00;;
11431;SDS011;5772;50.940;6.782;2023-07-20T04:56:36;83.67;;;80.07;;
11431;SDS011;5772;50.940;6.782;2023-07-20T04:59:02;101.70;;;97.57;;
11431;SDS011;5772;50.940;6.782;2023-07-20T05:01:27;87.50;;;83.67;;
11431;SDS011;5772;50.940;6.782;2023-07-20T05:03:53;86.77;;;83.07;;
11431;SDS011;5772;50.940;6.782;2023-07-20T05:06:18;89.03;;;85.23;;
11431;SDS011;5772;50.940;6.782;2023-07-20T05:08:44;87.00;;;83.00;;
11431;SDS011;5772;50.940;6.782;2023-07-20T05:11:09;82.60;;;78.93;;
11431;SDS011;5772;50.940;6.782;2023-07-20T05:13:36;81.27;;;77.57;;
11431;SDS011;5772;50.940;6.782;2023-07-20T05:16:01;81.97;;;78.47;;
11431;SDS011;5772;50.940;6.782;2023-07-20T05:18:26;89.27;;;85.23;;
11431;SDS011;5772;50.940;6.782;2023-07-20T05:20:52;95.77;;;91.33;;
11431;SDS011;5772;50.940;6.782;2023-07-20T05:23:18;95.43;;;91.20;;
11431;SDS011;5772;50.940;6.782;2023-07-20T05:25:43;101.53;;;97.20;;
11431;SDS011;5772;50.940;6.782;2023-07-20T05:28:09;92.43;;;88.70;;
11431;SDS011;5772;50.940;6.782;2023-07-20T05:30:35;95.37;;;91.33;;
11431;SDS011;5772;50.940;6.782;2023-07-20T05:33:01;94.13;;;90.00;;
11431;SDS011;5772;50.940;6.782;2023-07-20T05:35:26;109.70;;;104.90;;
11431;SDS011;5772;50.940;6.782;2023-07-20T05:37:52;115.50;;;110.77;;
11431;SDS011;5772;50.940;6.782;2023-07-20T05:40:17;118.80;;;113.80;;
11431;SDS011;5772;50.940;6.782;2023-07-20T05:42:43;144.50;;;138.33;;
11431;SDS011;5772;50.940;6.782;2023-07-20T05:45:08;147.63;;;141.63;;
11431;SDS011;5772;50.940;6.782;2023-07-20T05:47:35;148.90;;;142.53;;
11431;SDS011;5772;50.940;6.782;2023-07-20T05:50:01;149.40;;;142.63;;
11431;SDS011;5772;50.940;6.782;2023-07-20T05:52:26;150.33;;;144.00;;
11431;SDS011;5772;50.940;6.782;2023-07-20T05:54:52;141.67;;;135.67;;
11431;SDS011;5772;50.940;6.782;2023-07-20T05:57:17;152.60;;;146.23;;
11431;SDS011;5772;50.940;6.782;2023-07-20T05:59:42;153.87;;;147.13;;
11431;SDS011;5772;50.940;6.782;2023-07-20T06:02:08;156.80;;;150.10;;
11431;SDS011;5772;50.940;6.782;2023-07-20T06:04:34;149.27;;;142.67;;
11431;SDS011;5772;50.940;6.782;2023-07-20T06:07:00;156.23;;;149.70;;
11431;SDS011;5772;50.940;6.782;2023-07-20T06:09:25;151.93;;;145.67;;
11431;SDS011;5772;50.940;6.782;2023-07-20T06:11:50;156.73;;;150.17;;
11431;SDS011;5772;50.940;6.782;2023-07-20T06:14:16;154.57;;;147.67;;
11431;SDS011;5772;50.940;6.782;2023-07-20T06:16:41;146.90;;;140.70;;
11431;SDS011;5772;50.940;6.782;2023-07-20T06:19:07;150.40;;;143.77;;
11431;SDS011;5772;50.940;6.782;2023-07-20T06:21:33;139.17;;;132.97;;
11431;SDS011;5772;50.940;6.782;2023-07-20T06:23:59;146.17;;;139.80;;
11431;SDS011;5772;50.940;6.782;2023-07-20T06:26:24;142.27;;;136.27;;
11431;SDS011;5772;50.940;6.782;2023-07-20T06:28:49;139.23;;;133.33;;
11431;SDS011;5772;50.940;6.782;2023-07-20T06:31:16;138.80;;;132.77;;
11431;SDS011;5772;50.940;6.782;2023-07-20T06:33:42;135.20;;;129.20;;
11431;SDS011;5772;50.940;6.782;2023-07-20T06:36:07;128.13;;;122.40;;
11431;SDS011;5772;50.940;6.782;2023-07-20T06:38:34;118.97;;;113.80;;
11431;SDS011;5772;50.940;6.782;2023-07-20T06:40:59;122.90;;;117.60;;
11431;SDS011;5772;50.940;6.782;2023-07-20T06:43:25;113.77;;;108.63;;
11431;SDS011;5772;50.940;6.782;2023-07-20T06:45:53;114.40;;;109.10;;
11431;SDS011;5772;50.940;6.782;2023-07-20T06:48:18;120.87;;;115.70;;
11431;SDS011;5772;50.940;6.782;2023-07-20T06:50:44;109.90;;;104.80;;
11431;SDS011;5772;50.940;6.782;2023-07-20T06:53:09;97.13;;;92.50;;
11431;SDS011;5772;50.940;6.782;2023-07-20T06:55:36;89.67;;;85.50;;
11431;SDS011;5772;50.940;6.782;2023-07-20T06:58:01;87.73;;;83.50;;
11431;SDS011;5772;50.940;6.782;2023-07-20T07:00:26;89.90;;;85.77;;
11431;SDS011;5772;50.940;6.782;2023-07-20T07:02:52;88.07;;;83.90;;
11431;SDS011;5772;50.940;6.782;2023-07-20T07:05:17;93.60;;;89.20;;
11431;SDS011;5772;50.940;6.782;2023-07-20T07:07:42;97.33;;;92.70;;
11431;SDS011;5772;50.940;6.782;2023-07-20T07:10:08;96.93;;;92.63;;
11431;SDS011;5772;50.940;6.782;2023-07-20T07:12:35;92.43;;;88.13;;
11431;SDS011;5772;50.940;6.782;2023-07-20T07:15:00;97.10;;;92.53;;
11431;SDS011;5772;50.940;6.782;2023-07-20T07:17:26;94.67;;;90.07;;
11431;SDS011;5772;50.940;6.782;2023-07-20T07:19:51;95.37;;;91.03;;
11431;SDS011;5772;50.940;6.782;2023-07-20T07:22:17;106.07;;;101.33;;
11431;SDS011;5772;50.940;6.782;2023-07-20T07:24:42;99.70;;;95.47;;
11431;SDS011;5772;50.940;6.782;2023-07-20T07:27:08;101.83;;;97.47;;
11431;SDS011;5772;50.940;6.782;2023-07-20T07:29:35;89.10;;;85.27;;
11431;SDS011;5772;50.940;6.782;2023-07-20T07:32:00;75.97;;;72.37;;
11431;SDS011;5772;50.940;6.782;2023-07-20T07:34:26;66.97;;;63.90;;
11431;SDS011;5772;50.940;6.782;2023-07-20T07:36:51;68.73;;;65.40;;
11431;SDS011;5772;50.940;6.782;2023-07-20T07:39:16;72.53;;;69.30;;
11431;SDS011;5772;50.940;6.782;2023-07-20T07:41:42;79.70;;;76.10;;
11431;SDS011;5772;50.940;6.782;2023-07-20T07:44:07;83.47;;;79.27;;
11431;SDS011;5772;50.940;6.782;2023-07-20T07:46:34;83.70;;;79.93;;
11431;SDS011;5772;50.940;6.782;2023-07-20T07:48:59;80.80;;;77.20;;
11431;SDS011;5772;50.940;6.782;2023-07-20T07:51:24;78.37;;;74.67;;
11431;SDS011;5772;50.940;6.782;2023-07-20T07:53:50;71.70;;;68.23;;
11431;SDS011;5772;50.940;6.782;2023-07-20T07:56:15;80.80;;;77.20;;
11431;SDS011;5772;50.940;6.782;2023-07-20T07:58:40;88.37;;;84.47;;
11431;SDS011;5772;50.940;6.782;2023-07-20T08:01:06;118.90;;;113.47;;
11431;SDS011;5772;50.940;6.782;2023-07-20T08:03:32;108.00;;;103.03;;
11431;SDS011;5772;50.940;6.782;2023-07-20T08:05:58;69.68;;;66.60;;
11431;SDS011;5772;50.940;6.782;2023-07-20T08:08:24;60.85;;;57.92;;
11431;SDS011;5772;50.940;6.782;2023-07-20T08:10:49;54.63;;;52.22;;
11431;SDS011;5772;50.940;6.782;2023-07-20T08:13:17;58.03;;;55.50;;
11431;SDS011;5772;50.940;6.782;2023-07-20T08:15:48;62.70;;;60.08;;
11431;SDS011;5772;50.940;6.782;2023-07-20T08:18:15;55.65;;;52.83;;
11431;SDS011;5772;50.940;6.782;2023-07-20T08:20:44;49.33;;;46.90;;
11431;SDS011;5772;50.940;6.782;2023-07-20T08:23:10;51.97;;;49.78;;
11431;SDS011;5772;50.940;6.782;2023-07-20T08:25:35;62.00;;;59.30;;
11431;SDS011;5772;50.940;6.782;2023-07-20T08:28:01;56.95;;;54.47;;
11431;SDS011;5772;50.940;6.782;2023-07-20T08:30:26;52.50;;;49.97;;
11431;SDS011;5772;50.940;6.782;2023-07-20T08:32:51;52.17;;;49.95;;
11431;SDS011;5772;50.940;6.782;2023-07-20T08:35:17;55.65;;;53.25;;
11431;SDS011;5772;50.940;6.782;2023-07-20T08:37:44;52.45;;;49.95;;
11431;SDS011;5772;50.940;6.782;2023-07-20T08:40:09;53.28;;;50.88;;
11431;SDS011;5772;50.940;6.782;2023-07-20T08:42:36;50.78;;;48.25;;
11431;SDS011;5772;50.940;6.782;2023-07-20T08:45:02;50.90;;;48.63;;
11431;SDS011;5772;50.940;6.782;2023-07-20T08:47:31;53.97;;;51.53;;
11431;SDS011;5772;50.940;6.782;2023-07-20T08:49:57;57.45;;;54.90;;
11431;SDS011;5772;50.940;6.782;2023-07-20T08:52:22;60.10;;;57.47;;
11431;SDS011;5772;50.940;6.782;2023-07-20T08:54:49;55.83;;;53.50;;
11431;SDS011;5772;50.940;6.782;2023-07-20T08:57:15;53.85;;;51.63;;
11431;SDS011;5772;50.940;6.782;2023-07-20T08:59:40;58.38;;;55.78;;
11431;SDS011;5772;50.940;6.782;2023-07-20T09:02:06;63.08;;;60.03;;
11431;SDS011;5772;50.940;6.782;2023-07-20T09:04:33;49.65;;;47.45;;
11431;SDS011;5772;50.940;6.782;2023-07-20T09:06:59;57.30;;;54.85;;
11431;SDS011;5772;50.940;6.782;2023-07-20T09:09:24;64.80;;;62.03;;
11431;SDS011;5772;50.940;6.782;2023-07-20T09:11:51;56.70;;;54.25;;
11431;SDS011;5772;50.940;6.782;2023-07-20T09:14:16;55.20;;;52.78;;
11431;SDS011;5772;50.940;6.782;2023-07-20T09:16:47;63.10;;;60.25;;
11431;SDS011;5772;50.940;6.782;2023-07-20T09:19:14;56.60;;;54.13;;
11431;SDS011;5772;50.940;6.782;2023-07-20T09:21:39;57.75;;;54.90;;
11431;SDS011;5772;50.940;6.782;2023-07-20T09:24:05;84.90;;;81.05;;
11431;SDS011;5772;50.940;6.782;2023-07-20T09:26:31;86.10;;;82.25;;
11431;SDS011;5772;50.940;6.782;2023-07-20T09:29:06;77.90;;;74.15;;
11431;SDS011;5772;50.940;6.782;2023-07-20T09:31:32;86.22;;;82.47;;
11431;SDS011;5772;50.940;6.782;2023-07-20T09:33:58;81.38;;;77.82;;
11431;SDS011;5772;50.940;6.782;2023-07-20T09:36:23;85.38;;;81.63;;
11431;SDS011;5772;50.940;6.782;2023-07-20T09:38:48;78.28;;;74.75;;
11431;SDS011;5772;50.940;6.782;2023-07-20T09:41:14;83.68;;;80.03;;
11431;SDS011;5772;50.940;6.782;2023-07-20T09:43:40;69.15;;;66.18;;
11431;SDS011;5772;50.940;6.782;2023-07-20T09:46:07;88.25;;;84.28;;
11431;SDS011;5772;50.940;6.782;2023-07-20T09:48:32;97.18;;;92.75;;
11431;SDS011;5772;50.940;6.782;2023-07-20T09:50:58;97.03;;;92.55;;
11431;SDS011;5772;50.940;6.782;2023-07-20T09:53:24;93.53;;;89.45;;
11431;SDS011;5772;50.940;6.782;2023-07-20T09:55:50;125.45;;;119.95;;
11431;SDS011;5772;50.940;6.782;2023-07-20T09:58:15;117.95;;;112.85;;
11431;SDS011;5772;50.940;6.782;2023-07-20T10:00:41;120.30;;;115.00;;
11431;SDS011;5772;50.940;6.782;2023-07-20T10:03:08;125.65;;;120.18;;
11431;SDS011;5772;50.940;6.782;2023-07-20T10:05:36;121.45;;;116.15;;
11431;SDS011;5772;50.940;6.782;2023-07-20T10:08:04;113.88;;;109.07;;
11431;SDS011;5772;50.940;6.782;2023-07-20T10:10:29;128.25;;;122.78;;
11431;SDS011;5772;50.940;6.782;2023-07-20T10:12:56;116.22;;;111.07;;
11431;SDS011;5772;50.940;6.782;2023-07-20T10:15:23;107.65;;;102.72;;
11431;SDS011;5772;50.940;6.782;2023-07-20T10:17:55;119.25;;;114.25;;
11431;SDS011;5772;50.940;6.782;2023-07-20T10:20:24;110.45;;;105.78;;
11431;SDS011;5772;50.940;6.782;2023-07-20T10:22:50;114.15;;;109.28;;
11431;SDS011;5772;50.940;6.782;2023-07-20T10:25:18;103.75;;;99.35;;
11431;SDS011;5772;50.940;6.782;2023-07-20T10:27:45;131.05;;;125.38;;
11431;SDS011;5772;50.940;6.782;2023-07-20T10:30:11;109.22;;;104.45;;
11431;SDS011;5772;50.940;6.782;2023-07-20T10:32:36;105.35;;;100.68;;
11431;SDS011;5772;50.940;6.782;2023-07-20T10:35:11;105.80;;;101.00;;
11431;SDS011;5772;50.940;6.782;2023-07-20T10:37:48;101.80;;;97.28;;
11431;SDS011;5772;50.940;6.782;2023-07-20T10:40:28;97.75;;;93.25;;
11431;SDS011;5772;50.940;6.782;2023-07-20T10:43:02;100.70;;;96.00;;
11431;SDS011;5772;50.940;6.782;2023-07-20T10:45:35;98.45;;;94.18;;
11431;SDS011;5772;50.940;6.782;2023-07-20T10:48:13;106.07;;;101.57;;
11431;SDS011;5772;50.940;6.782;2023-07-20T10:50:39;112.75;;;107.90;;
11431;SDS011;5772;50.940;6.782;2023-07-20T10:53:06;110.90;;;105.85;;
11431;SDS011;5772;50.940;6.782;2023-07-20T10:55:35;108.15;;;103.45;;
11431;SDS011;5772;50.940;6.782;2023-07-20T10:58:07;97.82;;;93.78;;
11431;SDS011;5772;50.940;6.782;2023-07-20T11:00:33;99.90;;;95.75;;
11431;SDS011;5772;50.940;6.782;2023-07-20T11:03:00;87.97;;;84.18;;
11431;SDS011;5772;50.940;6.782;2023-07-20T11:05:32;72.22;;;69.07;;
11431;SDS011;5772;50.940;6.782;2023-07-20T11:08:03;68.18;;;65.22;;
11431;SDS011;5772;50.940;6.782;2023-07-20T11:10:30;72.13;;;68.88;;
11431;SDS011;5772;50.940;6.782;2023-07-20T11:15:47;107.50;;;102.68;;
11431;SDS011;5772;50.940;6.782;2023-07-20T11:18:13;94.38;;;90.22;;
11431;SDS011;5772;50.940;6.782;2023-07-20T11:20:39;103.93;;;99.50;;
11431;SDS011;5772;50.940;6.782;2023-07-20T11:23:05;88.25;;;84.43;;
11431;SDS011;5772;50.940;6.782;2023-07-20T11:25:37;97.03;;;92.82;;
11431;SDS011;5772;50.940;6.782;2023-07-20T11:28:06;99.70;;;95.00;;
11431;SDS011;5772;50.940;6.782;2023-07-20T11:30:32;82.50;;;78.90;;
11431;SDS011;5772;50.940;6.782;2023-07-20T11:32:57;100.30;;;96.00;;
11431;SDS011;5772;50.940;6.782;2023-07-20T11:35:23;70.78;;;67.60;;
11431;SDS011;5772;50.940;6.782;2023-07-20T11:37:48;97.13;;;92.82;;
11431;SDS011;5772;50.940;6.782;2023-07-20T11:40:13;109.07;;;104.10;;
11431;SDS011;5772;50.940;6.782;2023-07-20T11:42:40;92.93;;;88.60;;
11431;SDS011;5772;50.940;6.782;2023-07-20T11:45:06;85.65;;;81.95;;
11431;SDS011;5772;50.940;6.782;2023-07-20T11:47:32;94.70;;;90.53;;
11431;SDS011;5772;50.940;6.782;2023-07-20T11:49:57;95.35;;;91.15;;
11431;SDS011;5772;50.940;6.782;2023-07-20T11:52:27;102.78;;;98.10;;
11431;SDS011;5772;50.940;6.782;2023-07-20T11:54:53;112.82;;;107.70;;
11431;SDS011;5772;50.940;6.782;2023-07-20T11:57:18;118.68;;;113.25;;
11431;SDS011;5772;50.940;6.782;2023-07-20T11:59:53;107.95;;;102.93;;
11431;SDS011;5772;50.940;6.782;2023-07-20T12:02:19;106.90;;;102.10;;
11431;SDS011;5772;50.940;6.782;2023-07-20T12:04:44;111.57;;;106.57;;
11431;SDS011;5772;50.940;6.782;2023-07-20T12:07:09;103.43;;;98.82;;
11431;SDS011;5772;50.940;6.782;2023-07-20T12:09:35;97.20;;;93.00;;
11431;SDS011;5772;50.940;6.782;2023-07-20T12:12:00;102.03;;;96.63;;
11431;SDS011;5772;50.940;6.782;2023-07-20T12:14:34;105.93;;;101.53;;
11431;SDS011;5772;50.940;6.782;2023-07-20T12:17:01;95.35;;;90.70;;
11431;SDS011;5772;50.940;6.782;2023-07-20T12:19:26;106.35;;;101.63;;
11431;SDS011;5772;50.940;6.782;2023-07-20T12:21:56;100.05;;;95.18;;
11431;SDS011;5772;50.940;6.782;2023-07-20T12:24:22;100.30;;;95.78;;
11431;SDS011;5772;50.940;6.782;2023-07-20T12:26:48;93.18;;;88.93;;
11431;SDS011;5772;50.940;6.782;2023-07-20T12:29:13;82.85;;;79.05;;
11431;SDS011;5772;50.940;6.782;2023-07-20T12:31:38;98.90;;;94.70;;
11431;SDS011;5772;50.940;6.782;2023-07-20T12:34:05;101.60;;;97.05;;
11431;SDS011;5772;50.940;6.782;2023-07-20T12:36:30;85.18;;;80.88;;
11431;SDS011;5772;50.940;6.782;2023-07-20T12:38:56;101.15;;;96.43;;
11431;SDS011;5772;50.940;6.782;2023-07-20T12:41:21;102.18;;;97.75;;
11431;SDS011;5772;50.940;6.782;2023-07-20T12:43:46;103.82;;;98.95;;
11431;SDS011;5772;50.940;6.782;2023-07-20T12:46:12;86.53;;;82.43;;
11431;SDS011;5772;50.940;6.782;2023-07-20T12:48:38;71.32;;;67.97;;
11431;SDS011;5772;50.940;6.782;2023-07-20T12:51:05;101.43;;;96.55;;
11431;SDS011;5772;50.940;6.782;2023-07-20T12:53:31;75.43;;;71.80;;
11431;SDS011;5772;50.940;6.782;2023-07-20T12:55:56;114.45;;;108.90;;
11431;SDS011;5772;50.940;6.782;2023-07-20T12:58:22;97.55;;;92.55;;
11431;SDS011;5772;50.940;6.782;2023-07-20T13:00:47;101.63;;;96.78;;
11431;SDS011;5772;50.940;6.782;2023-07-20T13:03:12;81.80;;;77.70;;
11431;SDS011;5772;50.940;6.782;2023-07-20T13:05:38;89.28;;;85.22;;
11431;SDS011;5772;50.940;6.782;2023-07-20T13:08:05;71.30;;;68.00;;
11431;SDS011;5772;50.940;6.782;2023-07-20T13:10:30;101.55;;;96.60;;
11431;SDS011;5772;50.940;6.782;2023-07-20T13:12:56;94.30;;;90.15;;
11431;SDS011;5772;50.940;6.782;2023-07-20T13:15:24;97.78;;;93.50;;
11431;SDS011;5772;50.940;6.782;2023-07-20T13:17:49;82.15;;;78.22;;
11431;SDS011;5772;50.940;6.782;2023-07-20T13:20:15;75.53;;;72.07;;
11431;SDS011;5772;50.940;6.782;2023-07-20T13:22:40;86.30;;;82.45;;
11431;SDS011;5772;50.940;6.782;2023-07-20T13:25:07;89.68;;;85.57;;
11431;SDS011;5772;50.940;6.782;2023-07-20T13:27:33;91.63;;;87.47;;
11431;SDS011;5772;50.940;6.782;2023-07-20T13:29:59;96.40;;;92.05;;
11431;SDS011;5772;50.940;6.782;2023-07-20T13:32:25;89.32;;;84.95;;
11431;SDS011;5772;50.940;6.782;2023-07-20T13:34:51;95.07;;;90.53;;
11431;SDS011;5772;50.940;6.782;2023-07-20T13:37:16;76.05;;;72.40;;
11431;SDS011;5772;50.940;6.782;2023-07-20T13:39:41;70.18;;;66.82;;
11431;SDS011;5772;50.940;6.782;2023-07-20T13:42:08;90.90;;;86.53;;
11431;SDS011;5772;50.940;6.782;2023-07-20T13:44:34;61.05;;;58.22;;
11431;SDS011;5772;50.940;6.782;2023-07-20T13:46:59;73.20;;;69.68;;
11431;SDS011;5772;50.940;6.782;2023-07-20T13:49:25;63.80;;;60.90;;
11431;SDS011;5772;50.940;6.782;2023-07-20T13:51:50;60.92;;;58.15;;
11431;SDS011;5772;50.940;6.782;2023-07-20T13:54:15;85.75;;;81.93;;
11431;SDS011;5772;50.940;6.782;2023-07-20T13:56:41;73.57;;;70.20;;
11431;SDS011;5772;50.940;6.782;2023-07-20T13:59:08;52.72;;;50.45;;
11431;SDS011;5772;50.940;6.782;2023-07-20T14:01:33;88.43;;;83.80;;
11431;SDS011;5772;50.940;6.782;2023-07-20T14:03:58;68.50;;;65.60;;
11431;SDS011;5772;50.940;6.782;2023-07-20T14:06:24;69.28;;;66.05;;
11431;SDS011;5772;50.940;6.782;2023-07-20T14:08:49;53.75;;;51.47;;
11431;SDS011;5772;50.940;6.782;2023-07-20T14:11:15;114.65;;;109.53;;
11431;SDS011;5772;50.940;6.782;2023-07-20T14:13:40;80.82;;;77.40;;
11431;SDS011;5772;50.940;6.782;2023-07-20T14:16:07;109.28;;;104.40;;
11431;SDS011;5772;50.940;6.782;2023-07-20T14:18:32;146.20;;;140.10;;
11431;SDS011;5772;50.940;6.782;2023-07-20T14:20:58;165.50;;;158.10;;
11431;SDS011;5772;50.940;6.782;2023-07-20T14:23:23;161.52;;;154.38;;
11431;SDS011;5772;50.940;6.782;2023-07-20T14:25:48;147.70;;;141.15;;